Time;durP1;ratioP1;P1;durP2;ratioP2;P2;SDS_P1;SDS_P2;PMS_P1;PMS_P2;Temp;Humidity;BMP_temperature;BMP_pressure;BME280_temperature;BME280_humidity;BME280_pressure;Samples;Min_cycle;Max_cycle;Signal;HPM_P1;HPM_P2
2021/06/25 00:00:08;;;;;;;18.63;10.45;;;;;;;19.54;79.43;98334.56;4978304;28;20033;-73
2021/06/25 00:02:34;;;;;;;16.75;9.90;;;;;;;19.54;79.42;98345.69;4980223;28;20085;-74
2021/06/25 00:05:00;;;;;;;18.27;9.82;;;;;;;19.55;79.45;98338.94;4980043;28;20026;-74
2021/06/25 00:07:25;;;;;;;23.50;11.93;;;;;;;19.50;79.07;98322.53;4988978;28;20486;-77
2021/06/25 00:09:51;;;;;;;22.67;11.00;;;;;;;19.46;79.57;98328.00;4988891;28;20080;-75
2021/06/25 00:12:16;;;;;;;18.88;9.20;;;;;;;19.33;78.78;98296.72;4988123;28;20042;-74
2021/06/25 00:14:42;;;;;;;19.85;9.43;;;;;;;19.13;78.78;98345.03;4986853;28;20268;-74
2021/06/25 00:17:07;;;;;;;18.63;9.02;;;;;;;18.97;79.03;98408.91;4990459;28;20466;-74
2021/06/25 00:19:33;;;;;;;22.73;11.70;;;;;;;18.82;80.28;98435.44;4990831;28;20032;-75
2021/06/25 00:21:58;;;;;;;20.52;9.80;;;;;;;18.78;80.00;98421.44;4985468;28;20064;-75
2021/06/25 00:24:24;;;;;;;18.60;9.88;;;;;;;18.79;80.11;98392.50;4994627;28;20022;-75
2021/06/25 00:26:51;;;;;;;22.13;10.32;;;;;;;18.75;79.70;98361.84;4986724;28;20034;-75
2021/06/25 00:29:18;;;;;;;19.13;9.88;;;;;;;18.72;79.46;98372.88;4992862;28;20038;-76
2021/06/25 00:31:43;;;;;;;21.80;10.65;;;;;;;18.73;79.85;98380.84;4990745;28;20054;-76
2021/06/25 00:34:08;;;;;;;22.33;10.75;;;;;;;18.78;79.75;98373.41;4995073;28;20034;-76
2021/06/25 00:36:34;;;;;;;20.10;9.15;;;;;;;18.81;79.76;98350.50;4993785;28;20105;-76
2021/06/25 00:38:59;;;;;;;20.90;9.80;;;;;;;18.83;79.68;98331.50;5003290;28;20054;-75
2021/06/25 00:41:25;;;;;;;22.60;11.93;;;;;;;18.82;79.54;98336.22;4990176;28;20681;-75
2021/06/25 00:43:51;;;;;;;20.25;10.18;;;;;;;18.81;79.60;98354.06;4980925;28;20022;-76
2021/06/25 00:46:16;;;;;;;19.02;9.38;;;;;;;18.81;79.40;98372.72;4982236;28;20023;-75
2021/06/25 00:48:43;;;;;;;24.02;10.02;;;;;;;18.81;79.64;98376.28;4990175;28;20110;-75
2021/06/25 00:51:09;;;;;;;16.80;10.02;;;;;;;18.82;79.32;98430.69;4991029;28;20161;-75
2021/06/25 00:53:34;;;;;;;18.75;9.73;;;;;;;18.80;79.67;98476.66;4991233;28;20458;-74
2021/06/25 00:56:00;;;;;;;19.05;9.45;;;;;;;18.78;79.40;98465.88;4991058;28;20030;-74
2021/06/25 00:58:25;;;;;;;23.75;10.90;;;;;;;18.80;81.23;98438.56;4990498;28;20041;-74
2021/06/25 01:00:52;;;;;;;17.83;9.00;;;;;;;18.72;79.85;98420.88;4990758;28;20033;-74
2021/06/25 01:03:20;;;;;;;20.27;10.63;;;;;;;18.70;79.70;98414.09;4986809;28;21005;-75
2021/06/25 01:05:45;;;;;;;22.15;10.30;;;;;;;18.68;79.91;98408.06;4982624;28;20045;-74
2021/06/25 01:08:11;;;;;;;16.20;11.25;;;;;;;18.66;79.50;98402.84;4985686;28;20022;-73
2021/06/25 01:10:39;;;;;;;17.98;9.85;;;;;;;18.59;79.81;98391.53;4992002;28;20080;-75
2021/06/25 01:13:06;;;;;;;28.48;13.52;;;;;;;18.55;80.04;98396.16;4991390;28;20049;-74
2021/06/25 01:15:32;;;;;;;20.27;11.20;;;;;;;18.55;80.47;98413.66;4990590;28;20023;-73
2021/06/25 01:17:58;;;;;;;20.48;10.65;;;;;;;18.56;80.24;98426.38;4992364;28;20602;-74
2021/06/25 01:20:29;;;;;;;19.25;10.20;;;;;;;18.60;80.46;98423.69;4991677;28;20032;-74
2021/06/25 01:22:57;;;;;;;19.27;10.43;;;;;;;18.61;80.37;98422.53;4992355;28;20037;-74
2021/06/25 01:25:22;;;;;;;23.85;11.55;;;;;;;18.63;80.22;98422.19;4980285;28;20026;-74
2021/06/25 01:27:52;;;;;;;22.52;11.18;;;;;;;18.66;80.48;98397.28;4982106;28;20505;-74
2021/06/25 01:30:43;;;;;;;19.42;10.55;;;;;;;18.67;80.04;98414.78;4987710;28;20037;-75
2021/06/25 01:33:11;;;;;;;19.17;9.60;;;;;;;18.59;79.91;98485.94;4988758;28;20512;-75
2021/06/25 01:35:37;;;;;;;21.27;10.50;;;;;;;18.53;80.06;98468.72;4991198;28;20023;-73
2021/06/25 01:38:04;;;;;;;17.48;10.57;;;;;;;18.55;80.28;98402.53;4991187;28;20026;-74
2021/06/25 01:40:30;;;;;;;22.00;11.90;;;;;;;18.60;80.33;98399.53;5002294;28;20129;-74
2021/06/25 01:42:59;;;;;;;22.00;11.57;;;;;;;18.66;80.43;98418.72;4989949;28;20030;-74
2021/06/25 01:45:29;;;;;;;25.03;12.10;;;;;;;18.69;80.14;98406.91;4986813;28;20438;-74
2021/06/25 01:47:55;;;;;;;19.65;10.75;;;;;;;18.72;80.08;98392.31;4984695;28;20258;-75
2021/06/25 01:50:24;;;;;;;18.52;10.38;;;;;;;18.68;80.12;98352.50;4995353;28;20174;-74
2021/06/25 01:52:56;;;;;;;23.67;10.65;;;;;;;18.69;79.94;98337.47;4990501;28;20033;-75
2021/06/25 01:55:23;;;;;;;22.65;10.82;;;;;;;18.71;80.34;98324.81;5000248;28;20105;-75
2021/06/25 01:57:49;;;;;;;21.20;11.30;;;;;;;18.69;79.84;98321.59;4988443;28;20498;-74
2021/06/25 02:00:15;;;;;;;17.92;10.57;;;;;;;18.66;80.11;98344.50;4991072;28;20032;-74
2021/06/25 02:02:41;;;;;;;21.67;10.63;;;;;;;18.58;79.63;98359.34;5001472;28;20018;-75
2021/06/25 02:05:10;;;;;;;19.83;10.63;;;;;;;18.55;80.04;98355.31;4988271;28;20054;-75
2021/06/25 02:07:35;;;;;;;19.48;10.48;;;;;;;18.50;80.57;98354.78;4982688;28;20534;-75
2021/06/25 02:10:04;;;;;;;21.05;11.07;;;;;;;18.42;80.43;98340.69;4980852;28;20120;-74
2021/06/25 02:12:30;;;;;;;20.77;11.83;;;;;;;18.41;80.04;98327.94;4987191;28;20042;-74
2021/06/25 02:14:55;;;;;;;20.13;10.68;;;;;;;18.41;80.25;98330.72;4990966;28;20037;-75
2021/06/25 02:17:21;;;;;;;23.50;10.50;;;;;;;18.40;80.06;98323.56;4989639;28;20030;-75
2021/06/25 02:19:46;;;;;;;19.40;10.52;;;;;;;18.42;80.04;98335.13;4988114;28;20402;-76
2021/06/25 02:22:13;;;;;;;20.75;11.13;;;;;;;18.42;79.81;98334.31;4989418;28;20026;-75
2021/06/25 02:24:39;;;;;;;20.38;11.02;;;;;;;18.41;80.05;98319.63;4988219;28;20045;-75
2021/06/25 02:27:06;;;;;;;18.83;10.38;;;;;;;18.41;79.94;98313.25;5010963;28;20037;-75
2021/06/25 02:29:32;;;;;;;22.92;11.35;;;;;;;18.42;79.91;98312.91;5012411;28;20025;-75
2021/06/25 02:31:58;;;;;;;19.38;9.70;;;;;;;18.42;79.91;98314.88;5011931;28;20064;-75
2021/06/25 02:34:23;;;;;;;18.45;10.15;;;;;;;18.29;79.42;98305.78;5012316;28;20018;-74
2021/06/25 02:36:49;;;;;;;19.73;10.00;;;;;;;18.24;79.70;98292.13;5011839;28;20026;-74
2021/06/25 02:39:14;;;;;;;19.90;10.95;;;;;;;18.23;79.73;98302.44;5012161;28;20101;-74
2021/06/25 02:41:41;;;;;;;21.05;10.65;;;;;;;18.24;79.84;98317.13;5015670;28;20046;-74
2021/06/25 02:44:07;;;;;;;21.08;11.82;;;;;;;18.24;79.93;98308.78;5012362;28;20042;-74
2021/06/25 02:46:33;;;;;;;18.05;11.65;;;;;;;18.28;80.19;98310.53;5011898;28;20022;-74
2021/06/25 02:48:58;;;;;;;24.90;12.75;;;;;;;18.31;80.19;98317.34;5012068;28;20038;-74
2021/06/25 02:51:24;;;;;;;25.67;12.90;;;;;;;18.35;80.04;98307.16;5010460;28;20029;-75
2021/06/25 02:53:49;;;;;;;20.02;12.35;;;;;;;18.37;79.92;98317.88;5011903;28;20022;-74
2021/06/25 02:56:15;;;;;;;21.77;12.38;;;;;;;18.36;79.97;98319.03;5015565;28;20075;-75
2021/06/25 02:58:40;;;;;;;20.25;12.20;;;;;;;18.37;79.84;98313.16;5012047;28;20030;-75
2021/06/25 03:01:06;;;;;;;18.73;11.13;;;;;;;18.32;79.51;98307.84;5012017;28;20030;-74
2021/06/25 03:03:31;;;;;;;22.40;12.32;;;;;;;18.29;79.82;98314.94;5012935;28;20018;-74
2021/06/25 03:05:57;;;;;;;21.33;11.75;;;;;;;18.33;79.75;98317.78;5012479;28;20386;-75
2021/06/25 03:08:22;;;;;;;19.50;11.52;;;;;;;18.33;79.67;98306.69;5011812;28;20029;-74
2021/06/25 03:10:49;;;;;;;25.08;12.40;;;;;;;18.36;79.78;98316.25;5011827;28;20022;-75
2021/06/25 03:13:16;;;;;;;22.35;12.35;;;;;;;18.35;79.79;98326.56;5015155;28;20050;-75
2021/06/25 03:15:42;;;;;;;19.67;12.27;;;;;;;18.38;79.50;98333.38;5008081;28;20030;-75
2021/06/25 03:18:08;;;;;;;23.58;13.32;;;;;;;18.39;79.62;98340.56;5010578;28;20490;-75
2021/06/25 03:20:33;;;;;;;23.13;13.60;;;;;;;18.39;79.51;98341.38;5010793;28;20128;-74
2021/06/25 03:22:59;;;;;;;23.20;14.32;;;;;;;18.39;79.17;98335.81;5009974;28;20382;-75
2021/06/25 03:25:24;;;;;;;22.45;12.88;;;;;;;18.36;79.49;98336.53;5011044;28;20025;-75
2021/06/25 03:27:50;;;;;;;24.48;13.93;;;;;;;18.34;79.29;98341.63;5012487;28;20355;-75
2021/06/25 03:30:16;;;;;;;28.00;15.00;;;;;;;18.30;79.18;98338.75;5012085;28;20053;-75
2021/06/25 03:32:41;;;;;;;26.63;15.85;;;;;;;18.31;79.71;98339.53;5013228;28;20168;-76
2021/06/25 03:35:08;;;;;;;27.88;15.15;;;;;;;18.34;79.67;98346.38;5011892;28;20097;-75
2021/06/25 03:37:33;;;;;;;22.52;13.77;;;;;;;18.33;79.38;98355.88;5013487;28;20029;-76
2021/06/25 03:39:59;;;;;;;28.92;16.83;;;;;;;18.27;79.29;98358.06;5011501;28;20041;-76
2021/06/25 03:42:25;;;;;;;28.50;16.38;;;;;;;18.21;79.59;98349.16;5012348;28;20481;-75
2021/06/25 03:44:50;;;;;;;22.80;14.82;;;;;;;18.21;79.51;98359.44;5012298;28;20079;-74
2021/06/25 03:47:16;;;;;;;32.08;17.13;;;;;;;18.18;79.82;98376.81;5011475;28;20041;-74
2021/06/25 03:49:41;;;;;;;29.05;16.05;;;;;;;18.17;79.46;98364.91;5014649;28;20018;-75
2021/06/25 03:52:07;;;;;;;34.92;17.77;;;;;;;18.12;79.67;98362.38;5015005;28;20092;-75
2021/06/25 03:54:33;;;;;;;31.73;15.55;;;;;;;18.10;79.61;98359.94;5015331;28;20057;-75
2021/06/25 03:56:59;;;;;;;26.30;15.05;;;;;;;18.09;79.54;98361.09;5016712;28;20085;-75
2021/06/25 03:59:24;;;;;;;25.38;14.45;;;;;;;18.06;79.86;98367.34;5014848;28;20018;-74
2021/06/25 04:01:50;;;;;;;25.58;14.23;;;;;;;18.09;79.98;98358.34;5013441;28;20443;-75
2021/06/25 04:04:15;;;;;;;28.05;14.68;;;;;;;18.10;80.22;98365.50;5014383;28;20022;-74
2021/06/25 04:06:41;;;;;;;24.88;14.23;;;;;;;18.12;79.79;98374.28;5016904;28;20033;-75
2021/06/25 04:09:06;;;;;;;28.10;14.40;;;;;;;18.12;80.09;98374.28;5013800;28;20022;-75
2021/06/25 04:11:33;;;;;;;27.55;15.13;;;;;;;18.11;80.18;98366.28;5014699;28;20127;-75
2021/06/25 04:13:58;;;;;;;28.48;15.63;;;;;;;18.12;80.27;98371.50;5014593;28;20034;-74
2021/06/25 04:16:24;;;;;;;26.92;15.68;;;;;;;18.16;80.63;98363.28;5015224;28;20025;-74
2021/06/25 04:18:49;;;;;;;31.95;16.45;;;;;;;18.21;80.63;98370.56;5014823;28;20030;-74
2021/06/25 04:21:15;;;;;;;30.55;16.08;;;;;;;18.27;80.38;98367.22;5014434;28;20029;-73
2021/06/25 04:23:40;;;;;;;27.98;16.10;;;;;;;18.36;80.48;98367.06;5016027;28;20061;-74
2021/06/25 04:26:06;;;;;;;30.00;15.68;;;;;;;18.43;80.92;98364.50;5014285;28;20646;-74
2021/06/25 04:28:31;;;;;;;31.73;17.00;;;;;;;18.50;80.62;98363.09;5015400;28;20088;-74
2021/06/25 04:30:57;;;;;;;26.20;16.88;;;;;;;18.63;80.61;98361.09;5015659;28;20036;-73
2021/06/25 04:33:24;;;;;;;31.98;17.70;;;;;;;18.73;80.78;98364.16;5015757;28;20694;-74
2021/06/25 04:35:51;;;;;;;34.25;18.08;;;;;;;18.83;80.73;98367.63;5013941;28;20026;-74
2021/06/25 04:38:17;;;;;;;32.17;18.75;;;;;;;18.91;80.71;98363.88;5014561;28;20429;-74
2021/06/25 04:40:44;;;;;;;34.55;19.33;;;;;;;19.00;80.22;98366.53;5015349;28;20029;-74
2021/06/25 04:43:12;;;;;;;34.53;18.88;;;;;;;19.09;80.71;98366.34;5012702;28;20021;-74
2021/06/25 04:45:39;;;;;;;33.30;18.20;;;;;;;19.17;80.56;98379.28;5012974;28;20022;-73
2021/06/25 04:48:06;;;;;;;34.60;19.50;;;;;;;19.21;80.28;98371.84;5016875;28;20036;-73
2021/06/25 04:50:32;;;;;;;33.03;19.35;;;;;;;19.29;80.38;98365.31;5014208;28;20363;-74
2021/06/25 04:52:58;;;;;;;31.17;18.83;;;;;;;19.36;80.33;98373.03;5013944;28;20033;-74
2021/06/25 04:55:23;;;;;;;34.05;19.10;;;;;;;19.40;80.24;98367.56;5013549;28;20030;-74
2021/06/25 04:57:51;;;;;;;30.45;18.67;;;;;;;19.43;79.97;98361.28;5013825;28;20280;-74
2021/06/25 05:00:18;;;;;;;29.58;16.23;;;;;;;19.45;79.99;98368.13;5012889;28;20030;-74
2021/06/25 05:02:43;;;;;;;29.50;17.65;;;;;;;19.48;80.19;98378.53;5012347;28;20025;-74
2021/06/25 05:05:09;;;;;;;28.40;17.17;;;;;;;19.51;79.98;98373.41;5012111;28;20033;-74
2021/06/25 05:07:34;;;;;;;29.70;17.02;;;;;;;19.57;79.64;98375.56;5013231;28;20033;-74
2021/06/25 05:10:00;;;;;;;30.85;17.52;;;;;;;19.62;79.81;98378.06;5011920;28;20022;-74
2021/06/25 05:12:25;;;;;;;31.40;17.58;;;;;;;19.65;79.71;98370.97;5012435;28;20073;-73
2021/06/25 05:14:52;;;;;;;31.58;16.90;;;;;;;19.68;79.46;98378.59;5011414;28;20114;-73
2021/06/25 05:17:18;;;;;;;30.38;17.77;;;;;;;19.64;79.26;98370.19;5013044;28;20053;-74
2021/06/25 05:19:43;;;;;;;30.23;16.98;;;;;;;19.67;79.51;98371.41;5013173;28;20077;-74
2021/06/25 05:22:09;;;;;;;29.15;16.60;;;;;;;19.71;79.36;98377.09;5012536;28;20267;-74
2021/06/25 05:24:34;;;;;;;24.30;15.98;;;;;;;19.72;79.59;98371.16;5012377;28;20378;-74
2021/06/25 05:27:00;;;;;;;26.67;16.25;;;;;;;19.73;79.86;98374.75;5013218;28;20359;-74
2021/06/25 05:29:25;;;;;;;22.10;14.80;;;;;;;19.72;79.31;98370.38;5011383;28;20528;-75
2021/06/25 05:31:51;;;;;;;28.58;15.98;;;;;;;19.72;79.30;98381.50;5012198;28;20030;-73
2021/06/25 05:34:16;;;;;;;31.40;17.92;;;;;;;19.74;79.65;98373.59;5012850;28;20030;-75
2021/06/25 05:36:41;;;;;;;27.30;17.30;;;;;;;19.71;79.66;98366.75;5013018;28;20022;-75
2021/06/25 05:39:07;;;;;;;24.23;13.63;;;;;;;19.67;79.06;98367.84;5011221;28;20029;-75
2021/06/25 05:41:33;;;;;;;28.98;17.77;;;;;;;19.57;79.23;98372.78;5010537;28;20026;-73
2021/06/25 05:43:58;;;;;;;26.13;16.92;;;;;;;19.58;79.71;98381.91;5011592;28;20386;-75
2021/06/25 05:46:23;;;;;;;24.45;14.40;;;;;;;19.59;80.01;98383.53;5012634;28;20026;-76
2021/06/25 05:48:49;;;;;;;24.33;15.93;;;;;;;19.59;79.57;98378.78;5012156;28;20084;-74
2021/06/25 05:51:15;;;;;;;29.55;18.58;;;;;;;19.60;79.73;98374.84;5013414;28;20092;-75
2021/06/25 05:53:40;;;;;;;29.92;18.48;;;;;;;19.64;79.85;98367.41;5012970;28;20022;-75
2021/06/25 05:56:06;;;;;;;29.30;16.45;;;;;;;19.72;80.12;98381.50;5012195;28;20030;-73
2021/06/25 05:58:32;;;;;;;29.13;18.63;;;;;;;19.71;79.38;98380.66;5010357;28;20034;-75
2021/06/25 06:00:58;;;;;;;32.28;18.77;;;;;;;19.73;80.38;98374.75;5014075;28;20466;-74
2021/06/25 06:03:23;;;;;;;27.38;16.98;;;;;;;;;;5012588;28;20034;-75
2021/06/25 06:05:49;;;;;;;28.55;18.15;;;;;;;19.83;79.73;98376.19;5012449;28;20026;-74
2021/06/25 06:08:14;;;;;;;30.80;17.10;;;;;;;19.87;80.23;98379.84;5011455;28;20017;-75
2021/06/25 06:10:39;;;;;;;29.27;17.23;;;;;;;19.92;79.98;98383.19;5012027;28;20026;-75
2021/06/25 06:13:05;;;;;;;26.13;15.43;;;;;;;19.90;79.61;98377.19;5011944;28;20041;-74
2021/06/25 06:15:31;;;;;;;23.63;15.18;;;;;;;19.96;79.36;98383.31;5012300;28;20030;-73
2021/06/25 06:17:59;;;;;;;29.70;16.70;;;;;;;19.87;78.94;98386.22;5012934;28;20536;-73
2021/06/25 06:20:26;;;;;;;37.33;19.33;;;;;;;19.73;78.84;98392.25;5012933;28;20034;-73
2021/06/25 06:31:12;;;;;;;36.83;17.73;;;;;;;19.04;79.46;98414.69;5012430;28;20061;-74
2021/06/25 06:33:48;;;;;;;47.10;23.85;;;;;;;18.93;79.74;98403.25;5009416;28;20057;-76
2021/06/25 06:36:27;;;;;;;42.38;21.30;;;;;;;18.86;80.30;98412.16;5009907;28;20026;-78
2021/06/25 06:38:53;;;;;;;33.45;17.27;;;;;;;18.77;80.21;98419.03;5012239;28;20466;-76
2021/06/25 06:41:20;;;;;;;39.33;20.27;;;;;;;18.67;80.39;98421.13;5011833;28;20057;-75
2021/06/25 06:43:46;;;;;;;47.65;23.52;;;;;;;18.61;80.67;98422.53;5011808;28;20030;-75
2021/06/25 06:46:12;;;;;;;44.95;23.10;;;;;;;18.56;80.67;98434.69;5010479;28;20470;-76
2021/06/25 06:48:39;;;;;;;49.05;25.00;;;;;;;18.55;80.38;98418.38;5006297;28;20037;-77
2021/06/25 06:51:05;;;;;;;36.78;18.70;;;;;;;18.59;80.67;98424.84;5006864;28;20044;-76
2021/06/25 06:53:31;;;;;;;51.33;23.02;;;;;;;18.56;80.64;98425.53;5007225;28;20200;-77
2021/06/25 06:55:57;;;;;;;48.03;24.45;;;;;;;18.60;80.81;98426.47;5008505;28;20026;-77
2021/06/25 06:58:22;;;;;;;47.20;23.50;;;;;;;18.61;80.84;98422.53;5010870;28;20029;-78
2021/06/25 07:00:48;;;;;;;44.28;20.08;;;;;;;18.61;80.71;98428.09;5009170;28;20425;-80
2021/06/25 07:03:14;;;;;;;48.50;22.92;;;;;;;18.60;80.36;98430.06;5010113;28;20560;-76
2021/06/25 07:05:39;;;;;;;47.15;22.27;;;;;;;18.63;80.69;98433.31;5012330;28;20032;-80
2021/06/25 07:08:05;;;;;;;47.85;23.50;;;;;;;18.62;80.76;98437.25;5013373;28;20079;-79
2021/06/25 07:10:30;;;;;;;45.95;23.20;;;;;;;18.59;80.32;98433.19;5008387;28;20116;-79
2021/06/25 07:12:56;;;;;;;52.50;26.13;;;;;;;18.63;80.64;98436.09;5010401;28;20058;-76
2021/06/25 07:15:22;;;;;;;52.17;25.38;;;;;;;18.70;80.44;98439.09;5010954;28;20579;-78
2021/06/25 07:17:47;;;;;;;49.85;24.27;;;;;;;18.74;80.25;98442.78;5006922;28;20084;-80
2021/06/25 07:20:13;;;;;;;48.60;22.48;;;;;;;18.72;80.42;98445.88;5008807;28;20433;-79
2021/06/25 07:22:38;;;;;;;48.63;24.63;;;;;;;18.72;80.28;98456.22;5009986;28;20100;-81
2021/06/25 07:25:05;;;;;;;51.88;24.08;;;;;;;18.68;80.69;98458.06;5008229;28;20026;-75
2021/06/25 07:27:30;;;;;;;42.28;22.00;;;;;;;18.61;79.97;98458.63;5009436;28;20112;-75
2021/06/25 07:29:56;;;;;;;46.55;22.80;;;;;;;18.56;80.46;98451.38;5009130;28;20354;-77
2021/06/25 07:32:22;;;;;;;45.88;24.27;;;;;;;18.47;80.13;98447.91;5009961;28;20040;-76
2021/06/25 07:34:48;;;;;;;47.10;24.00;;;;;;;18.40;80.31;98456.00;5010550;28;20026;-75
2021/06/25 07:37:13;;;;;;;50.60;26.08;;;;;;;18.30;80.12;98447.00;5010286;28;20494;-77
2021/06/25 07:39:39;;;;;;;43.50;21.98;;;;;;;18.23;80.37;98432.09;5009530;28;20034;-79
2021/06/25 07:42:05;;;;;;;45.47;22.73;;;;;;;18.21;80.52;98431.63;5007701;28;20497;-78
2021/06/25 07:44:30;;;;;;;41.58;20.20;;;;;;;18.21;80.40;98435.22;5009732;28;20036;-79
2021/06/25 07:46:56;;;;;;;36.47;18.80;;;;;;;18.20;80.33;98430.81;5003620;28;20697;-78
2021/06/25 07:49:21;;;;;;;42.53;22.15;;;;;;;18.22;80.73;98422.13;5013757;28;20097;-75
2021/06/25 07:51:48;;;;;;;40.88;21.13;;;;;;;18.27;80.27;98421.91;5009080;28;20034;-75
2021/06/25 07:54:14;;;;;;;42.97;21.33;;;;;;;18.33;80.23;98419.72;5008553;28;20402;-76
2021/06/25 07:56:39;;;;;;;42.10;22.63;;;;;;;18.38;80.84;98411.94;5005355;28;20038;-78
2021/06/25 07:59:04;;;;;;;42.40;22.20;;;;;;;18.48;80.45;98415.41;5010113;28;20026;-78
2021/06/25 08:01:30;;;;;;;37.80;20.50;;;;;;;18.61;80.03;98428.09;5012457;28;20449;-82
2021/06/25 08:03:55;;;;;;;41.40;22.65;;;;;;;18.77;79.58;98419.03;5011216;28;20626;-77
2021/06/25 08:06:21;;;;;;;35.80;17.70;;;;;;;18.90;79.66;98424.19;5011893;28;20036;-77
2021/06/25 08:08:46;;;;;;;34.45;19.20;;;;;;;19.12;79.20;98424.84;5013673;28;20039;-77
2021/06/25 08:11:12;;;;;;;35.15;18.90;;;;;;;19.23;78.88;98427.09;5012970;28;20096;-77
2021/06/25 08:13:37;;;;;;;33.45;18.15;;;;;;;19.26;78.87;98423.59;5012827;28;20038;-76
2021/06/25 08:16:03;;;;;;;27.05;14.63;;;;;;;19.39;78.98;98425.16;5015177;28;20021;-75
2021/06/25 08:18:29;;;;;;;29.23;15.70;;;;;;;19.43;78.17;98428.03;5015729;28;20056;-75
2021/06/25 08:20:54;;;;;;;33.72;18.77;;;;;;;19.37;78.21;98421.91;5006785;28;20104;-77
2021/06/25 08:23:20;;;;;;;31.77;18.33;;;;;;;19.34;77.79;98419.84;5005282;28;20069;-74
2021/06/25 08:25:46;;;;;;;30.30;16.80;;;;;;;19.32;77.75;98428.56;5006687;28;20077;-73
2021/06/25 08:28:12;;;;;;;31.75;16.08;;;;;;;19.31;77.93;98435.28;5007666;28;20036;-78
2021/06/25 08:30:37;;;;;;;37.15;19.65;;;;;;;19.25;77.31;98435.88;5010889;28;20049;-76
2021/06/25 08:33:03;;;;;;;33.85;18.05;;;;;;;19.25;77.81;98442.25;5008963;28;20026;-73
2021/06/25 08:35:29;;;;;;;34.92;19.23;;;;;;;19.19;77.50;98440.91;5008670;28;20088;-76
2021/06/25 08:37:54;;;;;;;65.32;32.28;;;;;;;19.07;77.40;98432.59;5012085;28;20385;-73
2021/06/25 08:40:21;;;;;;;51.28;26.33;;;;;;;18.99;77.35;98442.72;5012032;28;20022;-77
2021/06/25 08:42:47;;;;;;;50.50;26.10;;;;;;;18.97;77.67;98447.81;5014452;28;20040;-73
2021/06/25 08:45:14;;;;;;;47.63;25.75;;;;;;;18.94;77.39;98440.97;5017926;28;20052;-78
2021/06/25 08:47:50;;;;;;;35.13;19.77;;;;;;;18.93;77.56;98438.53;5015638;28;20030;-83
2021/06/25 08:50:24;;;;;;;34.65;19.25;;;;;;;19.01;77.51;98437.63;5013310;28;20195;-78
2021/06/25 08:52:52;;;;;;;44.83;24.55;;;;;;;19.11;77.55;98441.84;5012095;28;20034;-75
2021/06/25 08:55:19;;;;;;;43.42;23.92;;;;;;;19.13;77.36;98451.47;5010486;28;20026;-76
2021/06/25 08:57:45;;;;;;;48.65;25.40;;;;;;;18.99;77.11;98454.63;5011117;28;20036;-75
2021/06/25 09:00:16;;;;;;;54.90;28.48;;;;;;;18.83;77.42;98459.31;5010676;28;20030;-75
2021/06/25 09:02:44;;;;;;;47.03;25.10;;;;;;;18.72;77.56;98464.53;5011888;28;20116;-75
2021/06/25 09:05:21;;;;;;;47.88;25.25;;;;;;;18.65;77.53;98465.13;5010895;28;20026;-72
2021/06/25 09:07:46;;;;;;;47.38;24.75;;;;;;;18.60;77.65;98470.91;5010419;28;20037;-71
2021/06/25 09:10:14;;;;;;;52.53;27.00;;;;;;;18.52;78.00;98469.09;5010189;28;20029;-73
2021/06/25 09:12:57;;;;;;;48.88;25.35;;;;;;;18.49;78.20;98478.13;5007763;28;20045;-75
2021/06/25 09:15:22;;;;;;;49.85;24.25;;;;;;;18.39;78.12;98490.47;5011172;28;20466;-76
2021/06/25 09:18:05;;;;;;;58.97;28.35;;;;;;;18.25;78.09;98493.63;5006556;28;20113;-75
2021/06/25 09:20:35;;;;;;;54.40;25.33;;;;;;;18.19;78.13;98495.00;5010076;28;20029;-72
2021/06/25 09:23:22;;;;;;;55.20;26.23;;;;;;;18.17;78.18;98498.13;5010378;28;20378;-74
2021/06/25 09:26:10;;;;;;;56.80;28.67;;;;;;;18.15;78.33;98490.13;5009866;28;20053;-74
2021/06/25 09:28:38;;;;;;;51.38;25.63;;;;;;;18.22;78.81;98497.06;5010231;28;20056;-75
2021/06/25 09:31:18;;;;;;;46.10;23.38;;;;;;;18.20;78.66;98480.78;5008391;28;20026;-72
2021/06/25 09:33:53;;;;;;;54.67;28.25;;;;;;;18.25;78.57;98488.06;5010158;28;20045;-74
2021/06/25 09:36:27;;;;;;;51.60;25.23;;;;;;;18.38;78.67;98497.19;5010221;28;20014;-73
2021/06/25 09:38:56;;;;;;;47.53;24.70;;;;;;;18.55;78.47;98490.59;5010287;28;20030;-77
2021/06/25 09:41:22;;;;;;;52.58;26.23;;;;;;;18.69;78.34;98493.03;5011427;28;20036;-73
2021/06/25 09:44:01;;;;;;;52.83;27.55;;;;;;;18.87;78.36;98486.03;5008737;28;20037;-73
2021/06/25 09:46:34;;;;;;;50.95;26.73;;;;;;;19.01;78.22;98494.00;5011385;28;20030;-77
2021/06/25 09:49:10;;;;;;;51.85;26.65;;;;;;;19.11;77.66;98501.06;5009617;28;20037;-76
2021/06/25 09:51:37;;;;;;;53.90;27.90;;;;;;;19.17;77.57;98499.63;5007868;28;20452;-76
2021/06/25 09:54:11;;;;;;;50.83;25.38;;;;;;;19.27;77.58;98498.31;5010866;28;20501;-78
2021/06/25 09:56:46;;;;;;;48.35;24.15;;;;;;;19.26;76.97;98505.06;5011311;28;20116;-80
2021/06/25 09:59:31;;;;;;;49.72;25.67;;;;;;;19.28;76.83;98502.72;5010661;28;20105;-77
2021/06/25 10:01:58;;;;;;;48.80;26.10;;;;;;;19.27;76.95;98492.78;5009753;28;20056;-79
2021/06/25 10:04:35;;;;;;;43.08;24.10;;;;;;;19.25;76.57;98506.22;5009697;28;20033;-80
2021/06/25 10:07:17;;;;;;;41.92;22.70;;;;;;;19.24;76.86;98498.22;5011264;28;20482;-75
2021/06/25 10:09:46;;;;;;;49.80;25.33;;;;;;;19.24;76.68;98498.22;5009332;28;20474;-75
2021/06/25 10:12:14;;;;;;;46.40;24.90;;;;;;;19.22;76.55;98497.75;5009168;28;20145;-77
2021/06/25 10:14:41;;;;;;;51.72;26.52;;;;;;;19.14;76.39;98503.13;5010095;28;20061;-78
2021/06/25 10:17:11;;;;;;;44.35;23.55;;;;;;;19.08;76.12;98495.38;5010644;28;20030;-76
2021/06/25 10:19:48;;;;;;;47.03;24.63;;;;;;;18.93;75.62;98497.72;5009860;28;20057;-79
2021/06/25 10:22:16;;;;;;;44.53;23.48;;;;;;;18.84;76.11;98508.16;5011321;28;20032;-77
2021/06/25 10:24:45;;;;;;;57.33;28.33;;;;;;;18.73;76.55;98505.06;5011647;28;20109;-84
2021/06/25 10:27:12;;;;;;;41.33;23.20;;;;;;;18.77;76.49;98521.81;5012548;28;20641;-76
2021/06/25 10:29:38;;;;;;;53.30;27.50;;;;;;;18.73;76.70;98525.28;5010894;28;20441;-77
2021/06/25 10:32:09;;;;;;;50.90;27.40;;;;;;;18.80;76.53;98524.69;5012997;28;20025;-75
2021/06/25 10:34:37;;;;;;;50.33;24.25;;;;;;;18.80;76.73;98521.91;5007193;28;20021;-74
2021/06/25 10:37:05;;;;;;;52.85;26.38;;;;;;;18.87;76.99;98532.47;5010599;28;20036;-73
2021/06/25 10:39:36;;;;;;;61.35;30.52;;;;;;;18.96;77.29;98527.59;5010671;28;20041;-76
2021/06/25 10:42:04;;;;;;;53.72;27.27;;;;;;;18.96;77.22;98535.94;5011076;28;20033;-76
2021/06/25 10:44:30;;;;;;;59.07;30.00;;;;;;;18.97;77.03;98539.53;5009709;28;20073;-75
2021/06/25 10:46:55;;;;;;;58.03;30.55;;;;;;;18.95;76.96;98539.03;5012065;28;20308;-71
2021/06/25 10:49:21;;;;;;;51.97;26.63;;;;;;;18.89;76.50;98544.03;5008458;28;20021;-73
2021/06/25 10:51:46;;;;;;;49.78;25.98;;;;;;;18.76;76.38;98546.00;5009096;28;20118;-73
2021/06/25 10:54:21;;;;;;;40.97;21.98;;;;;;;18.72;76.48;98547.88;5007757;28;20029;-71
2021/06/25 10:56:49;;;;;;;45.92;23.02;;;;;;;18.67;76.48;98546.13;5009280;28;20477;-73
2021/06/25 10:59:20;;;;;;;45.40;24.40;;;;;;;18.70;76.60;98551.00;5010241;28;20037;-73
2021/06/25 11:01:59;;;;;;;43.13;23.35;;;;;;;18.71;76.54;98544.28;5008197;28;20529;-75
2021/06/25 11:04:30;;;;;;;50.90;24.50;;;;;;;18.76;76.51;98540.44;5011607;28;20398;-72
2021/06/25 11:06:57;;;;;;;43.65;23.75;;;;;;;18.85;76.42;98543.13;5011806;28;20030;-74
2021/06/25 11:09:30;;;;;;;43.90;22.17;;;;;;;18.96;76.26;98535.13;5012574;28;20041;-73
2021/06/25 11:12:19;;;;;;;45.60;24.52;;;;;;;19.11;76.00;98531.63;5011561;28;20045;-74
2021/06/25 11:14:44;;;;;;;42.22;22.77;;;;;;;19.19;75.53;98532.66;5008463;28;20455;-76
2021/06/25 11:17:10;;;;;;;42.80;22.55;;;;;;;19.23;75.36;98536.34;5010251;28;20112;-74
2021/06/25 11:19:40;;;;;;;40.47;21.92;;;;;;;19.30;75.50;98541.28;5009278;28;20547;-74
2021/06/25 11:22:41;;;;;;;41.85;22.05;;;;;;;19.40;75.69;98548.31;5012720;28;20026;-75
2021/06/25 11:25:15;;;;;;;45.55;20.88;;;;;;;19.50;75.25;98558.94;4953314;28;20047;-75
2021/06/25 11:28:18;;;;;;;35.63;20.00;;;;;;;19.54;74.43;98550.72;5000483;28;20339;-74